2026/08/03

Sensor Date Temp./Hum.
h4-hermonville 03-08-2026 - 23:58 24.4°C / 70%
h2-hermonville 03-08-2026 - 23:54 23.1°C / 78%
h1-hermonville 03-08-2026 - 23:54 22.3°C / 79%
h3-hermonville 03-08-2026 - 23:50 23.3°C / 75.5%
h4-hermonville 03-08-2026 - 23:48 24.4°C / 70.5%
h1-hermonville 03-08-2026 - 23:44 23°C / 77%
h3-hermonville 03-08-2026 - 23:40 23.2°C / 76%
h4-hermonville 03-08-2026 - 23:38 24.2°C / 70%
h2-hermonville 03-08-2026 - 23:34 22.5°C / 79.5%
h1-hermonville 03-08-2026 - 23:34 23.2°C / 75.5%
h3-hermonville 03-08-2026 - 23:30 22.6°C / 78%
h4-hermonville 03-08-2026 - 23:28 24.4°C / 69%
h2-hermonville 03-08-2026 - 23:24 22.4°C / 80.5%
h1-hermonville 03-08-2026 - 23:24 23.3°C / 75.5%
h3-hermonville 03-08-2026 - 23:20 22.5°C / 79%
h4-hermonville 03-08-2026 - 23:18 24.4°C / 69.5%
h2-hermonville 03-08-2026 - 23:14 22.5°C / 79%
h1-hermonville 03-08-2026 - 23:14 23.3°C / 75.5%
h3-hermonville 03-08-2026 - 23:10 22.1°C / 79.5%
h4-hermonville 03-08-2026 - 23:08 23.9°C / 71%
h2-hermonville 03-08-2026 - 23:04 22.3°C / 80%
h1-hermonville 03-08-2026 - 23:04 23.3°C / 76%
h3-hermonville 03-08-2026 - 23:00 22°C / 80.5%
h4-hermonville 03-08-2026 - 22:58 24°C / 71%
h2-hermonville 03-08-2026 - 22:54 22.7°C / 78%
h1-hermonville 03-08-2026 - 22:54 23.2°C / 75.5%
h3-hermonville 03-08-2026 - 22:50 22.1°C / 79.5%
h4-hermonville 03-08-2026 - 22:48 23.4°C / 72.5%
h2-hermonville 03-08-2026 - 22:44 22.6°C / 78%
h1-hermonville 03-08-2026 - 22:44 23.2°C / 75%
h3-hermonville 03-08-2026 - 22:40 22.1°C / 78%
h4-hermonville 03-08-2026 - 22:38 23.7°C / 71%
h2-hermonville 03-08-2026 - 22:34 22.9°C / 76.5%
h1-hermonville 03-08-2026 - 22:34 23.3°C / 73.5%
h3-hermonville 03-08-2026 - 22:30 22.6°C / 75.5%
h4-hermonville 03-08-2026 - 22:28 23.9°C / 70.5%
h2-hermonville 03-08-2026 - 22:24 22.8°C / 79%
h3-hermonville 03-08-2026 - 22:20 23.1°C / 76.5%
h4-hermonville 03-08-2026 - 22:18 24.5°C / 70%
h2-hermonville 03-08-2026 - 22:14 23.5°C / 76%
h1-hermonville 03-08-2026 - 22:14 23.1°C / 76%
h3-hermonville 03-08-2026 - 22:10 23.5°C / 74.5%
h4-hermonville 03-08-2026 - 22:08 24.2°C / 69.5%
h2-hermonville 03-08-2026 - 22:04 24.5°C / 72%
h1-hermonville 03-08-2026 - 22:04 23.9°C / 73%
h3-hermonville 03-08-2026 - 22:00 23.6°C / 73%
h4-hermonville 03-08-2026 - 21:58 24.8°C / 65.5%
h2-hermonville 03-08-2026 - 21:54 23.9°C / 70.5%
h1-hermonville 03-08-2026 - 21:54 23.9°C / 70.5%
h3-hermonville 03-08-2026 - 21:50 23.3°C / 68%
h4-hermonville 03-08-2026 - 21:48 25.4°C / 64%
h2-hermonville 03-08-2026 - 21:44 24.5°C / 70.5%
h1-hermonville 03-08-2026 - 21:44 24°C / 70.5%
h3-hermonville 03-08-2026 - 21:40 24.5°C / 65.5%
h4-hermonville 03-08-2026 - 21:38 25.5°C / 60.5%
h2-hermonville 03-08-2026 - 21:34 25.3°C / 65%
h1-hermonville 03-08-2026 - 21:34 24°C / 65%
h3-hermonville 03-08-2026 - 21:30 24.3°C / 65%
h4-hermonville 03-08-2026 - 21:28 25.6°C / 61.5%
h2-hermonville 03-08-2026 - 21:24 25.5°C / 66.5%
h1-hermonville 03-08-2026 - 21:24 23.3°C / 70.5%
h3-hermonville 03-08-2026 - 21:20 24.3°C / 68.5%
h4-hermonville 03-08-2026 - 21:18 25.4°C / 63%
h2-hermonville 03-08-2026 - 21:14 25.4°C / 66%
h1-hermonville 03-08-2026 - 21:14 23.9°C / 68%
h3-hermonville 03-08-2026 - 21:10 24.4°C / 67.5%
h4-hermonville 03-08-2026 - 21:08 25.4°C / 62%
h2-hermonville 03-08-2026 - 21:04 25.5°C / 67%
h1-hermonville 03-08-2026 - 21:04 23.8°C / 70.5%
h3-hermonville 03-08-2026 - 21:00 24.1°C / 68%
h4-hermonville 03-08-2026 - 20:58 25°C / 63.5%
h2-hermonville 03-08-2026 - 20:54 25.3°C / 67.5%
h1-hermonville 03-08-2026 - 20:54 23.4°C / 70.5%
h3-hermonville 03-08-2026 - 20:50 23.4°C / 71.5%
h4-hermonville 03-08-2026 - 20:48 24.9°C / 65.5%
h2-hermonville 03-08-2026 - 20:44 25.1°C / 68%
h1-hermonville 03-08-2026 - 20:44 22.9°C / 75%
h3-hermonville 03-08-2026 - 20:40 23.4°C / 70.5%
h4-hermonville 03-08-2026 - 20:38 25°C / 64.5%
h2-hermonville 03-08-2026 - 20:34 24.9°C / 69.5%
h1-hermonville 03-08-2026 - 20:34 23.2°C / 72.5%
h3-hermonville 03-08-2026 - 20:30 23.6°C / 69.5%
h4-hermonville 03-08-2026 - 20:28 25.3°C / 62%
h1-hermonville 03-08-2026 - 20:24 23.2°C / 71.5%
h3-hermonville 03-08-2026 - 20:20 23.8°C / 73%
h4-hermonville 03-08-2026 - 20:18 25.7°C / 66.5%
h2-hermonville 03-08-2026 - 20:14 22.7°C / 82%
h1-hermonville 03-08-2026 - 20:14 23.5°C / 77%
h3-hermonville 03-08-2026 - 20:10 23.2°C / 77.5%
h4-hermonville 03-08-2026 - 20:08 25.6°C / 68%
h2-hermonville 03-08-2026 - 20:04 23.9°C / 79%
h1-hermonville 03-08-2026 - 20:04 22.6°C / 81%
h3-hermonville 03-08-2026 - 20:00 23.8°C / 76%
h4-hermonville 03-08-2026 - 19:58 25.2°C / 71%
h2-hermonville 03-08-2026 - 19:54 23.9°C / 78%
h1-hermonville 03-08-2026 - 19:54 23.5°C / 77%
h3-hermonville 03-08-2026 - 19:50 23.5°C / 75%
h4-hermonville 03-08-2026 - 19:48 24.9°C / 67.5%
h1-hermonville 03-08-2026 - 19:44 23.5°C / 74%
h3-hermonville 03-08-2026 - 19:40 23.2°C / 73%
h4-hermonville 03-08-2026 - 19:38 26.1°C / 63%
h2-hermonville 03-08-2026 - 19:34 25.1°C / 72.5%
h1-hermonville 03-08-2026 - 19:34 23°C / 74.5%
h3-hermonville 03-08-2026 - 19:30 23.8°C / 69.5%
h4-hermonville 03-08-2026 - 19:28 25.9°C / 61.5%
h2-hermonville 03-08-2026 - 19:24 25.4°C / 80.5%
h1-hermonville 03-08-2026 - 19:24 22.8°C / 77.5%
h3-hermonville 03-08-2026 - 19:20 24.4°C / 70.5%
h4-hermonville 03-08-2026 - 19:18 26.5°C / 63%
h2-hermonville 03-08-2026 - 19:14 23.5°C / 87%
h1-hermonville 03-08-2026 - 19:14 25°C / 70.5%
h3-hermonville 03-08-2026 - 19:10 24.8°C / 71.5%
h4-hermonville 03-08-2026 - 19:08 26.7°C / 62.5%
h1-hermonville 03-08-2026 - 19:04 25.8°C / 67.5%
h3-hermonville 03-08-2026 - 19:00 24.9°C / 68.5%
h4-hermonville 03-08-2026 - 18:58 27.2°C / 61%
h2-hermonville 03-08-2026 - 18:54 23.1°C / 89.5%
h1-hermonville 03-08-2026 - 18:54 25.9°C / 66%
h3-hermonville 03-08-2026 - 18:50 24.5°C / 72.5%
h2-hermonville 03-08-2026 - 18:44 26.1°C / 69%
h1-hermonville 03-08-2026 - 18:44 27.3°C / 60.5%
h3-hermonville 03-08-2026 - 18:40 26.4°C / 64%
h2-hermonville 03-08-2026 - 18:34 27.4°C / 67.5%
h1-hermonville 03-08-2026 - 18:34 27.4°C / 65%
h3-hermonville 03-08-2026 - 18:30 28.7°C / 59%
h4-hermonville 03-08-2026 - 18:28 29.2°C / 57%
h2-hermonville 03-08-2026 - 18:24 29.2°C / 59.5%
h1-hermonville 03-08-2026 - 18:24 27.3°C / 60%
h3-hermonville 03-08-2026 - 18:20 29.3°C / 58%
h4-hermonville 03-08-2026 - 18:18 29.1°C / 53.5%
h2-hermonville 03-08-2026 - 18:14 29.3°C / 61%
h1-hermonville 03-08-2026 - 18:14 27.6°C / 56.5%
h3-hermonville 03-08-2026 - 18:10 29.9°C / 53.5%
h4-hermonville 03-08-2026 - 18:08 29.8°C / 50%
h2-hermonville 03-08-2026 - 18:04 30.2°C / 48%
h1-hermonville 03-08-2026 - 18:04 28.6°C / 52%
h3-hermonville 03-08-2026 - 18:00 30.2°C / 47%
h4-hermonville 03-08-2026 - 17:58 30.5°C / 46%
h2-hermonville 03-08-2026 - 17:54 30.6°C / 46%
h1-hermonville 03-08-2026 - 17:54 28.7°C / 51.5%
h3-hermonville 03-08-2026 - 17:50 30.6°C / 47%
h4-hermonville 03-08-2026 - 17:48 31°C / 46%
h2-hermonville 03-08-2026 - 17:44 30.8°C / 46.5%
h1-hermonville 03-08-2026 - 17:44 29°C / 52%
h3-hermonville 03-08-2026 - 17:40 31.2°C / 45.5%
h4-hermonville 03-08-2026 - 17:38 31.5°C / 44.5%
h2-hermonville 03-08-2026 - 17:34 31.7°C / 43.5%
h1-hermonville 03-08-2026 - 17:34 29.8°C / 49.5%
h3-hermonville 03-08-2026 - 17:30 32.6°C / 41.5%
h4-hermonville 03-08-2026 - 17:28 32.5°C / 41%
h2-hermonville 03-08-2026 - 17:24 33°C / 39%
h1-hermonville 03-08-2026 - 17:24 32°C / 41.5%
h3-hermonville 03-08-2026 - 17:20 33.6°C / 38%
h4-hermonville 03-08-2026 - 17:18 33.5°C / 37.5%
h2-hermonville 03-08-2026 - 17:14 35.6°C / 33%
h1-hermonville 03-08-2026 - 17:14 34°C / 36.5%
h3-hermonville 03-08-2026 - 17:10 35.5°C / 31.5%
h4-hermonville 03-08-2026 - 17:08 34.1°C / 34%
h2-hermonville 03-08-2026 - 17:04 36.2°C / 31%
h1-hermonville 03-08-2026 - 17:04 34.8°C / 33%
h3-hermonville 03-08-2026 - 17:00 35.7°C / 31%
h4-hermonville 03-08-2026 - 16:58 34°C / 33%
h2-hermonville 03-08-2026 - 16:54 36.4°C / 30%
h1-hermonville 03-08-2026 - 16:54 34.9°C / 32%
h3-hermonville 03-08-2026 - 16:50 36°C / 30.5%
h4-hermonville 03-08-2026 - 16:48 34.2°C / 32.5%
h2-hermonville 03-08-2026 - 16:44 36.4°C / 30.5%
h1-hermonville 03-08-2026 - 16:44 34.8°C / 32%
h3-hermonville 03-08-2026 - 16:40 35.8°C / 30%
h4-hermonville 03-08-2026 - 16:38 34.2°C / 33%
h2-hermonville 03-08-2026 - 16:34 36.7°C / 30%
h1-hermonville 03-08-2026 - 16:34 35°C / 32%
h3-hermonville 03-08-2026 - 16:30 36.1°C / 30%
h4-hermonville 03-08-2026 - 16:28 34.2°C / 33%
h2-hermonville 03-08-2026 - 16:24 36.9°C / 29.5%
h3-hermonville 03-08-2026 - 16:20 36.1°C / 30%
h4-hermonville 03-08-2026 - 16:18 34.2°C / 33%
h2-hermonville 03-08-2026 - 16:14 36°C / 31%
h1-hermonville 03-08-2026 - 16:14 34.1°C / 33.5%
h3-hermonville 03-08-2026 - 16:10 35.7°C / 31.5%
h4-hermonville 03-08-2026 - 16:08 34.5°C / 33%
h2-hermonville 03-08-2026 - 16:04 35.7°C / 32.5%
h1-hermonville 03-08-2026 - 16:04 34.4°C / 33.5%
h3-hermonville 03-08-2026 - 16:00 35.7°C / 31%
h4-hermonville 03-08-2026 - 15:58 34°C / 33.5%
h2-hermonville 03-08-2026 - 15:54 36.8°C / 30.5%
h1-hermonville 03-08-2026 - 15:54 34.1°C / 34%
h3-hermonville 03-08-2026 - 15:50 35.6°C / 31.5%
h4-hermonville 03-08-2026 - 15:48 34°C / 33.5%
h2-hermonville 03-08-2026 - 15:44 36.5°C / 32%
h1-hermonville 03-08-2026 - 15:44 34.1°C / 34%
h3-hermonville 03-08-2026 - 15:40 35.9°C / 31%
h4-hermonville 03-08-2026 - 15:38 34.3°C / 33%
h2-hermonville 03-08-2026 - 15:34 35.5°C / 32.5%
h3-hermonville 03-08-2026 - 15:30 35.5°C / 32%
h4-hermonville 03-08-2026 - 15:28 33.8°C / 34%
h2-hermonville 03-08-2026 - 15:24 35.9°C / 32%
h1-hermonville 03-08-2026 - 15:24 33.7°C / 34.5%
h3-hermonville 03-08-2026 - 15:20 35.4°C / 31.5%
h4-hermonville 03-08-2026 - 15:18 34°C / 34%
h2-hermonville 03-08-2026 - 15:14 35.1°C / 32.5%
h1-hermonville 03-08-2026 - 15:14 33.4°C / 35%
h3-hermonville 03-08-2026 - 15:10 35.6°C / 31%
h4-hermonville 03-08-2026 - 15:08 34.2°C / 33%
h2-hermonville 03-08-2026 - 15:04 34.7°C / 33.5%
h3-hermonville 03-08-2026 - 15:00 35°C / 31%
h4-hermonville 03-08-2026 - 14:58 33.8°C / 33%
h2-hermonville 03-08-2026 - 14:54 33.3°C / 35.5%
h1-hermonville 03-08-2026 - 14:54 32.7°C / 35.5%
h3-hermonville 03-08-2026 - 14:50 35.1°C / 31.5%
h2-hermonville 03-08-2026 - 14:44 33.2°C / 36%
h1-hermonville 03-08-2026 - 14:44 32.6°C / 36.5%
h3-hermonville 03-08-2026 - 14:40 34.6°C / 32.5%
h4-hermonville 03-08-2026 - 14:38 33.4°C / 35%
h2-hermonville 03-08-2026 - 14:34 30.7°C / 41%
h1-hermonville 03-08-2026 - 14:34 32.4°C / 37.5%
h3-hermonville 03-08-2026 - 14:30 34.4°C / 33.5%
h4-hermonville 03-08-2026 - 14:28 33.2°C / 35%
h2-hermonville 03-08-2026 - 14:24 31.8°C / 38.5%
h1-hermonville 03-08-2026 - 14:24 31.6°C / 38%
h3-hermonville 03-08-2026 - 14:20 34.1°C / 33.5%
h2-hermonville 03-08-2026 - 14:14 32.4°C / 37.5%
h1-hermonville 03-08-2026 - 14:14 31.7°C / 37.5%
h3-hermonville 03-08-2026 - 14:10 33.8°C / 33.5%
h4-hermonville 03-08-2026 - 14:08 33.2°C / 35%
h2-hermonville 03-08-2026 - 14:04 32.2°C / 37%
h1-hermonville 03-08-2026 - 14:04 31.7°C / 38%
h3-hermonville 03-08-2026 - 14:00 33.9°C / 33.5%
h4-hermonville 03-08-2026 - 13:58 33.1°C / 34.5%
h2-hermonville 03-08-2026 - 13:54 32.3°C / 37%
h1-hermonville 03-08-2026 - 13:54 31.3°C / 38%
h3-hermonville 03-08-2026 - 13:50 33.3°C / 34%
h4-hermonville 03-08-2026 - 13:48 33°C / 35%
h2-hermonville 03-08-2026 - 13:44 30.7°C / 39.5%
h1-hermonville 03-08-2026 - 13:44 31.3°C / 38%
h3-hermonville 03-08-2026 - 13:40 32.7°C / 35.5%
h4-hermonville 03-08-2026 - 13:38 33.2°C / 34.5%
h2-hermonville 03-08-2026 - 13:34 30.2°C / 41%
h1-hermonville 03-08-2026 - 13:34 31.1°C / 38.5%
h3-hermonville 03-08-2026 - 13:30 31.9°C / 37%
h4-hermonville 03-08-2026 - 13:28 32.7°C / 35%
h2-hermonville 03-08-2026 - 13:24 30.2°C / 40.5%
h1-hermonville 03-08-2026 - 13:24 30.7°C / 39%
h3-hermonville 03-08-2026 - 13:20 31.8°C / 37%
h4-hermonville 03-08-2026 - 13:18 32.7°C / 34.5%
h2-hermonville 03-08-2026 - 13:14 29.4°C / 42.5%
h1-hermonville 03-08-2026 - 13:14 30.9°C / 38.5%
h3-hermonville 03-08-2026 - 13:10 32.2°C / 36%
h4-hermonville 03-08-2026 - 13:08 32.8°C / 35%
h2-hermonville 03-08-2026 - 13:04 29.3°C / 42.5%
h1-hermonville 03-08-2026 - 13:04 30.7°C / 38.5%
h3-hermonville 03-08-2026 - 13:00 31.9°C / 37%
h4-hermonville 03-08-2026 - 12:58 32.6°C / 35%
h2-hermonville 03-08-2026 - 12:54 29.6°C / 41.5%
h1-hermonville 03-08-2026 - 12:54 30.5°C / 39%
h3-hermonville 03-08-2026 - 12:50 30.9°C / 37.5%
h4-hermonville 03-08-2026 - 12:48 32.5°C / 35%
h2-hermonville 03-08-2026 - 12:44 29.1°C / 41.5%
h1-hermonville 03-08-2026 - 12:44 30.7°C / 38%
h3-hermonville 03-08-2026 - 12:40 30.6°C / 38.5%
h4-hermonville 03-08-2026 - 12:38 32.5°C / 35%
h2-hermonville 03-08-2026 - 12:34 28.9°C / 42.5%
h1-hermonville 03-08-2026 - 12:34 30.4°C / 39%
h3-hermonville 03-08-2026 - 12:30 30.2°C / 39.5%
h4-hermonville 03-08-2026 - 12:28 32.5°C / 34.5%
h2-hermonville 03-08-2026 - 12:24 28.3°C / 44%
h1-hermonville 03-08-2026 - 12:24 30.3°C / 38.5%
h3-hermonville 03-08-2026 - 12:20 30.1°C / 39.5%
h4-hermonville 03-08-2026 - 12:18 32.8°C / 34%
h2-hermonville 03-08-2026 - 12:14 27.9°C / 44.5%
h1-hermonville 03-08-2026 - 12:14 30.2°C / 38.5%
h3-hermonville 03-08-2026 - 12:10 29.7°C / 40%
h4-hermonville 03-08-2026 - 12:08 33.4°C / 33%
h2-hermonville 03-08-2026 - 12:04 28.3°C / 43.5%
h1-hermonville 03-08-2026 - 12:04 29.7°C / 39.5%
h3-hermonville 03-08-2026 - 12:00 29°C / 41%
h4-hermonville 03-08-2026 - 11:58 34.2°C / 32%
h2-hermonville 03-08-2026 - 11:54 27.7°C / 44%
h1-hermonville 03-08-2026 - 11:54 29.6°C / 40%
h3-hermonville 03-08-2026 - 11:50 28.9°C / 41%
h4-hermonville 03-08-2026 - 11:48 34.7°C / 31.5%
h2-hermonville 03-08-2026 - 11:44 27.2°C / 45.5%
h1-hermonville 03-08-2026 - 11:44 29°C / 41%
h3-hermonville 03-08-2026 - 11:40 28.4°C / 42.5%
h4-hermonville 03-08-2026 - 11:38 34.4°C / 31.5%
h2-hermonville 03-08-2026 - 11:34 26.7°C / 46.5%
h1-hermonville 03-08-2026 - 11:34 28.5°C / 41.5%
h3-hermonville 03-08-2026 - 11:30 28.3°C / 42%
h4-hermonville 03-08-2026 - 11:28 35.3°C / 30.5%
h2-hermonville 03-08-2026 - 11:24 26.5°C / 47%
h1-hermonville 03-08-2026 - 11:24 28.2°C / 42.5%
h3-hermonville 03-08-2026 - 11:20 27.7°C / 43.5%
h4-hermonville 03-08-2026 - 11:18 34.1°C / 32%
h2-hermonville 03-08-2026 - 11:14 26.3°C / 47%
h1-hermonville 03-08-2026 - 11:14 27.6°C / 44%
h3-hermonville 03-08-2026 - 11:10 27.3°C / 44.5%
h4-hermonville 03-08-2026 - 11:08 33.1°C / 34%
h2-hermonville 03-08-2026 - 11:04 26.3°C / 47%
h1-hermonville 03-08-2026 - 11:04 27.2°C / 44.5%
h3-hermonville 03-08-2026 - 11:00 26.9°C / 45.5%
h4-hermonville 03-08-2026 - 10:58 32.6°C / 33.5%
h2-hermonville 03-08-2026 - 10:54 26°C / 47.5%
h1-hermonville 03-08-2026 - 10:54 26.9°C / 45%
h3-hermonville 03-08-2026 - 10:50 26.6°C / 45.5%
h4-hermonville 03-08-2026 - 10:48 32.1°C / 34.5%
h2-hermonville 03-08-2026 - 10:44 25.9°C / 47.5%
h1-hermonville 03-08-2026 - 10:44 26.5°C / 46%
h3-hermonville 03-08-2026 - 10:40 26.4°C / 46.5%
h4-hermonville 03-08-2026 - 10:38 31.3°C / 36%
h2-hermonville 03-08-2026 - 10:34 25.7°C / 48%
h1-hermonville 03-08-2026 - 10:34 26.1°C / 47.5%
h3-hermonville 03-08-2026 - 10:30 25.9°C / 47.5%
h4-hermonville 03-08-2026 - 10:28 30.9°C / 36.5%
h2-hermonville 03-08-2026 - 10:24 25.4°C / 49%
h1-hermonville 03-08-2026 - 10:24 25.6°C / 48%
h3-hermonville 03-08-2026 - 10:20 25.7°C / 48%
h4-hermonville 03-08-2026 - 10:18 30.2°C / 37.5%
h2-hermonville 03-08-2026 - 10:14 25.2°C / 50%
h1-hermonville 03-08-2026 - 10:14 25.2°C / 49.5%
h3-hermonville 03-08-2026 - 10:10 25.3°C / 47.5%
h4-hermonville 03-08-2026 - 10:08 30.1°C / 38.5%
h2-hermonville 03-08-2026 - 10:04 24.9°C / 49.5%
h1-hermonville 03-08-2026 - 10:04 24.7°C / 51%
h3-hermonville 03-08-2026 - 10:00 25°C / 50%
h4-hermonville 03-08-2026 - 09:58 28.9°C / 41.5%
h2-hermonville 03-08-2026 - 09:54 24.8°C / 51%
h1-hermonville 03-08-2026 - 09:54 24.3°C / 52%
h3-hermonville 03-08-2026 - 09:50 25°C / 50.5%
h4-hermonville 03-08-2026 - 09:48 28.1°C / 41.5%
h2-hermonville 03-08-2026 - 09:44 24.8°C / 52%
h1-hermonville 03-08-2026 - 09:44 23.9°C / 53.5%
h3-hermonville 03-08-2026 - 09:40 24.6°C / 51.5%
h4-hermonville 03-08-2026 - 09:38 28.1°C / 42.5%
h2-hermonville 03-08-2026 - 09:34 24.3°C / 52.5%
h1-hermonville 03-08-2026 - 09:34 23.5°C / 54.5%
h3-hermonville 03-08-2026 - 09:30 24.4°C / 52%
h4-hermonville 03-08-2026 - 09:28 29.2°C / 40.5%
h1-hermonville 03-08-2026 - 09:24 23.2°C / 55%
h3-hermonville 03-08-2026 - 09:20 24.3°C / 52%
h2-hermonville 03-08-2026 - 09:14 23.9°C / 53.5%
h1-hermonville 03-08-2026 - 09:14 23.1°C / 55%
h3-hermonville 03-08-2026 - 09:10 24°C / 52.5%
h4-hermonville 03-08-2026 - 09:08 28.4°C / 41.5%
h2-hermonville 03-08-2026 - 09:04 23.8°C / 54%
h1-hermonville 03-08-2026 - 09:04 22.7°C / 56%
h3-hermonville 03-08-2026 - 09:00 23.9°C / 54%
h4-hermonville 03-08-2026 - 08:58 28.3°C / 42.5%
h2-hermonville 03-08-2026 - 08:54 23.3°C / 54.5%
h1-hermonville 03-08-2026 - 08:54 22.6°C / 57%
h3-hermonville 03-08-2026 - 08:50 23.6°C / 54%
h4-hermonville 03-08-2026 - 08:48 28.1°C / 43%
h2-hermonville 03-08-2026 - 08:44 23.2°C / 55.5%
h1-hermonville 03-08-2026 - 08:44 22.5°C / 57.5%
h3-hermonville 03-08-2026 - 08:40 23.2°C / 55.5%
h4-hermonville 03-08-2026 - 08:38 26.6°C / 46%
h2-hermonville 03-08-2026 - 08:34 22.5°C / 57%
h1-hermonville 03-08-2026 - 08:34 22.3°C / 58.5%
h3-hermonville 03-08-2026 - 08:30 23.1°C / 56.5%
h4-hermonville 03-08-2026 - 08:28 24.8°C / 51.5%
h2-hermonville 03-08-2026 - 08:24 22.4°C / 59.5%
h1-hermonville 03-08-2026 - 08:24 21.8°C / 61.5%
h3-hermonville 03-08-2026 - 08:20 22.8°C / 58%
h4-hermonville 03-08-2026 - 08:18 24°C / 54%
h2-hermonville 03-08-2026 - 08:14 22.4°C / 59.5%
h1-hermonville 03-08-2026 - 08:14 21.8°C / 60.5%
h3-hermonville 03-08-2026 - 08:10 22.5°C / 59%
h4-hermonville 03-08-2026 - 08:08 23.7°C / 54.5%
h2-hermonville 03-08-2026 - 08:04 21.7°C / 61%
h1-hermonville 03-08-2026 - 08:04 21.5°C / 61%
h3-hermonville 03-08-2026 - 08:00 21.5°C / 62%
h4-hermonville 03-08-2026 - 07:58 23.2°C / 56.5%
h2-hermonville 03-08-2026 - 07:54 21.1°C / 64%
h1-hermonville 03-08-2026 - 07:54 21.4°C / 63%
h3-hermonville 03-08-2026 - 07:50 21°C / 64%
h4-hermonville 03-08-2026 - 07:48 22.5°C / 58.5%
h2-hermonville 03-08-2026 - 07:44 20.7°C / 66.5%
h1-hermonville 03-08-2026 - 07:44 20.8°C / 65.5%
h3-hermonville 03-08-2026 - 07:40 20.8°C / 65.5%
h4-hermonville 03-08-2026 - 07:38 22.4°C / 59.5%
h2-hermonville 03-08-2026 - 07:34 20.6°C / 66%
h1-hermonville 03-08-2026 - 07:34 20.5°C / 66.5%
h3-hermonville 03-08-2026 - 07:30 20.5°C / 65.5%
h4-hermonville 03-08-2026 - 07:28 22°C / 59%
h2-hermonville 03-08-2026 - 07:24 20.5°C / 65.5%
h1-hermonville 03-08-2026 - 07:24 20.7°C / 65%
h3-hermonville 03-08-2026 - 07:20 20.2°C / 66%
h4-hermonville 03-08-2026 - 07:18 22°C / 59.5%
h2-hermonville 03-08-2026 - 07:14 20.5°C / 66%
h1-hermonville 03-08-2026 - 07:14 20.4°C / 66%
h3-hermonville 03-08-2026 - 07:10 20.6°C / 65.5%
h4-hermonville 03-08-2026 - 07:08 21.5°C / 61.5%
h2-hermonville 03-08-2026 - 07:04 20.3°C / 66.5%
h1-hermonville 03-08-2026 - 07:04 20.2°C / 67%
h3-hermonville 03-08-2026 - 07:00 20.1°C / 66.5%
h4-hermonville 03-08-2026 - 06:58 21.8°C / 60%
h2-hermonville 03-08-2026 - 06:54 20°C / 67.5%
h1-hermonville 03-08-2026 - 06:54 19.8°C / 68%
h3-hermonville 03-08-2026 - 06:50 20.3°C / 66%
h4-hermonville 03-08-2026 - 06:48 21.6°C / 60.5%
h2-hermonville 03-08-2026 - 06:44 20.2°C / 66.5%
h1-hermonville 03-08-2026 - 06:44 20.3°C / 65.5%
h3-hermonville 03-08-2026 - 06:40 19.8°C / 66.5%
h4-hermonville 03-08-2026 - 06:38 21.6°C / 60%
h2-hermonville 03-08-2026 - 06:34 20.3°C / 66%
h1-hermonville 03-08-2026 - 06:34 20.1°C / 66.5%
h3-hermonville 03-08-2026 - 06:30 20.1°C / 66%
h4-hermonville 03-08-2026 - 06:28 21.8°C / 60%
h2-hermonville 03-08-2026 - 06:24 20.4°C / 66%
h3-hermonville 03-08-2026 - 06:20 20.4°C / 65.5%
h4-hermonville 03-08-2026 - 06:18 21.5°C / 60.5%
h2-hermonville 03-08-2026 - 06:14 20.3°C / 66.5%
h1-hermonville 03-08-2026 - 06:14 20.1°C / 67%
h3-hermonville 03-08-2026 - 06:10 20.4°C / 65.5%
h2-hermonville 03-08-2026 - 06:04 20.3°C / 67%
h1-hermonville 03-08-2026 - 06:04 20.2°C / 66%
h3-hermonville 03-08-2026 - 06:00 20.2°C / 66.5%
h4-hermonville 03-08-2026 - 05:58 22.4°C / 57.5%
h2-hermonville 03-08-2026 - 05:54 20.3°C / 66.5%
h1-hermonville 03-08-2026 - 05:54 20.2°C / 66%
h3-hermonville 03-08-2026 - 05:50 20.9°C / 64%
h4-hermonville 03-08-2026 - 05:48 22.2°C / 58.5%
h2-hermonville 03-08-2026 - 05:44 20.4°C / 67%
h1-hermonville 03-08-2026 - 05:44 20.6°C / 65%
h3-hermonville 03-08-2026 - 05:40 20.1°C / 66.5%
h4-hermonville 03-08-2026 - 05:38 22.7°C / 57%
h2-hermonville 03-08-2026 - 05:34 20.2°C / 67%
h1-hermonville 03-08-2026 - 05:34 21°C / 64%
h3-hermonville 03-08-2026 - 05:30 20.5°C / 65%
h4-hermonville 03-08-2026 - 05:28 22.3°C / 58.5%
h2-hermonville 03-08-2026 - 05:24 20.5°C / 66%
h1-hermonville 03-08-2026 - 05:24 20.5°C / 65.5%
h3-hermonville 03-08-2026 - 05:20 20.8°C / 65%
h4-hermonville 03-08-2026 - 05:18 22.4°C / 58.5%
h2-hermonville 03-08-2026 - 05:14 20.4°C / 66.5%
h1-hermonville 03-08-2026 - 05:14 21°C / 64.5%
h3-hermonville 03-08-2026 - 05:10 20.7°C / 65.5%
h4-hermonville 03-08-2026 - 05:08 22.6°C / 57%
h2-hermonville 03-08-2026 - 05:04 20.4°C / 66%
h1-hermonville 03-08-2026 - 05:04 20.8°C / 64.5%
h3-hermonville 03-08-2026 - 05:00 21.1°C / 63%
h4-hermonville 03-08-2026 - 04:58 22.5°C / 58%
h2-hermonville 03-08-2026 - 04:54 20.8°C / 65%
h1-hermonville 03-08-2026 - 04:54 21.1°C / 64%
h3-hermonville 03-08-2026 - 04:50 21.1°C / 63.5%
h4-hermonville 03-08-2026 - 04:48 22.8°C / 56.5%
h2-hermonville 03-08-2026 - 04:44 20.8°C / 65.5%
h1-hermonville 03-08-2026 - 04:44 21°C / 63.5%
h3-hermonville 03-08-2026 - 04:40 21.6°C / 61.5%
h4-hermonville 03-08-2026 - 04:38 22.8°C / 57.5%
h2-hermonville 03-08-2026 - 04:34 20.8°C / 65%
h1-hermonville 03-08-2026 - 04:34 21.2°C / 63%
h3-hermonville 03-08-2026 - 04:30 21.4°C / 62.5%
h4-hermonville 03-08-2026 - 04:28 23.2°C / 56.5%
h2-hermonville 03-08-2026 - 04:24 21.1°C / 64.5%
h1-hermonville 03-08-2026 - 04:24 21.3°C / 63%
h3-hermonville 03-08-2026 - 04:20 21.4°C / 62.5%
h4-hermonville 03-08-2026 - 04:18 23.1°C / 57%
h2-hermonville 03-08-2026 - 04:14 21.2°C / 64.5%
h1-hermonville 03-08-2026 - 04:14 21.6°C / 62.5%
h3-hermonville 03-08-2026 - 04:10 21.6°C / 62%
h4-hermonville 03-08-2026 - 04:08 22.9°C / 57%
h2-hermonville 03-08-2026 - 04:04 21.2°C / 64%
h1-hermonville 03-08-2026 - 04:04 21.6°C / 62%
h3-hermonville 03-08-2026 - 04:00 21.8°C / 61.5%
h4-hermonville 03-08-2026 - 03:58 22.9°C / 56.5%
h2-hermonville 03-08-2026 - 03:54 21.5°C / 63.5%
h1-hermonville 03-08-2026 - 03:54 21.4°C / 62.5%
h3-hermonville 03-08-2026 - 03:50 22°C / 61.5%
h4-hermonville 03-08-2026 - 03:48 23°C / 57.5%
h2-hermonville 03-08-2026 - 03:44 21.9°C / 62%
h1-hermonville 03-08-2026 - 03:44 21.4°C / 63%
h3-hermonville 03-08-2026 - 03:40 21.9°C / 61.5%
h4-hermonville 03-08-2026 - 03:38 23°C / 57.5%
h2-hermonville 03-08-2026 - 03:34 22°C / 62%
h1-hermonville 03-08-2026 - 03:34 21.5°C / 63%
h3-hermonville 03-08-2026 - 03:30 22.4°C / 60%
h4-hermonville 03-08-2026 - 03:28 22.9°C / 57.5%
h2-hermonville 03-08-2026 - 03:24 22.3°C / 60.5%
h1-hermonville 03-08-2026 - 03:24 21.8°C / 62.5%
h3-hermonville 03-08-2026 - 03:20 22.7°C / 58.5%
h4-hermonville 03-08-2026 - 03:18 23°C / 56%
h2-hermonville 03-08-2026 - 03:14 22.2°C / 61%
h1-hermonville 03-08-2026 - 03:14 21.8°C / 62%
h3-hermonville 03-08-2026 - 03:10 22.6°C / 59%
h4-hermonville 03-08-2026 - 03:08 23.2°C / 56.5%
h2-hermonville 03-08-2026 - 03:04 22.4°C / 60.5%
h1-hermonville 03-08-2026 - 03:04 21.9°C / 62%
h3-hermonville 03-08-2026 - 03:00 22.9°C / 58%
h4-hermonville 03-08-2026 - 02:58 23.4°C / 56.5%
h2-hermonville 03-08-2026 - 02:54 23°C / 59%
h1-hermonville 03-08-2026 - 02:54 22.1°C / 61.5%
h3-hermonville 03-08-2026 - 02:50 23.4°C / 56.5%
h4-hermonville 03-08-2026 - 02:48 23.6°C / 54.5%
h2-hermonville 03-08-2026 - 02:44 23.1°C / 57.5%
h1-hermonville 03-08-2026 - 02:44 22.6°C / 59%
h3-hermonville 03-08-2026 - 02:40 23.6°C / 55.5%
h4-hermonville 03-08-2026 - 02:38 23.8°C / 54%
h2-hermonville 03-08-2026 - 02:34 23.2°C / 57%
h1-hermonville 03-08-2026 - 02:34 22.8°C / 58%
h3-hermonville 03-08-2026 - 02:30 23.8°C / 54.5%
h4-hermonville 03-08-2026 - 02:28 24°C / 53.5%
h2-hermonville 03-08-2026 - 02:24 23.4°C / 56.5%
h1-hermonville 03-08-2026 - 02:24 23.2°C / 57%
h3-hermonville 03-08-2026 - 02:20 24.1°C / 53.5%
h4-hermonville 03-08-2026 - 02:18 24.2°C / 52.5%
h2-hermonville 03-08-2026 - 02:14 23.8°C / 55.5%
h1-hermonville 03-08-2026 - 02:14 23.3°C / 56%
h3-hermonville 03-08-2026 - 02:10 24.2°C / 53.5%
h4-hermonville 03-08-2026 - 02:08 24.4°C / 52%
h2-hermonville 03-08-2026 - 02:04 24.2°C / 54.5%
h1-hermonville 03-08-2026 - 02:04 23.5°C / 55.5%
h3-hermonville 03-08-2026 - 02:00 24.2°C / 53.5%
h4-hermonville 03-08-2026 - 01:58 24.7°C / 51.5%
h2-hermonville 03-08-2026 - 01:54 24°C / 55%
h1-hermonville 03-08-2026 - 01:54 23.6°C / 55.5%
h3-hermonville 03-08-2026 - 01:50 24.4°C / 52.5%
h4-hermonville 03-08-2026 - 01:48 24.9°C / 50%
h2-hermonville 03-08-2026 - 01:44 24.3°C / 53.5%
h1-hermonville 03-08-2026 - 01:44 23.9°C / 54%
h3-hermonville 03-08-2026 - 01:40 24.7°C / 51.5%
h4-hermonville 03-08-2026 - 01:38 25°C / 50.5%
h2-hermonville 03-08-2026 - 01:34 24.6°C / 52.5%
h1-hermonville 03-08-2026 - 01:34 24.2°C / 53.5%
h3-hermonville 03-08-2026 - 01:30 25°C / 51%
h4-hermonville 03-08-2026 - 01:28 25.3°C / 49.5%
h2-hermonville 03-08-2026 - 01:24 25.1°C / 51.5%
h1-hermonville 03-08-2026 - 01:24 24.5°C / 53%
h3-hermonville 03-08-2026 - 01:20 25.5°C / 49.5%
h4-hermonville 03-08-2026 - 01:18 25.5°C / 49%
h2-hermonville 03-08-2026 - 01:14 26.2°C / 48.5%
h1-hermonville 03-08-2026 - 01:14 24.9°C / 51%
h3-hermonville 03-08-2026 - 01:10 25.8°C / 48%
h4-hermonville 03-08-2026 - 01:08 25.8°C / 47%
h2-hermonville 03-08-2026 - 01:04 25.7°C / 49%
h1-hermonville 03-08-2026 - 01:04 24.9°C / 50.5%
h3-hermonville 03-08-2026 - 01:00 25.7°C / 48.5%
h4-hermonville 03-08-2026 - 00:58 25.8°C / 47.5%
h2-hermonville 03-08-2026 - 00:54 25.8°C / 48.5%
h1-hermonville 03-08-2026 - 00:54 24.9°C / 50.5%
h3-hermonville 03-08-2026 - 00:50 25.8°C / 48.5%
h4-hermonville 03-08-2026 - 00:48 25.8°C / 47.5%
h2-hermonville 03-08-2026 - 00:44 25.9°C / 48.5%
h1-hermonville 03-08-2026 - 00:44 25°C / 50.5%
h3-hermonville 03-08-2026 - 00:40 25.8°C / 48%
h4-hermonville 03-08-2026 - 00:38 25.9°C / 47%
h2-hermonville 03-08-2026 - 00:34 26.2°C / 47.5%
h1-hermonville 03-08-2026 - 00:34 25.2°C / 49.5%
h3-hermonville 03-08-2026 - 00:30 26.2°C / 47%
h4-hermonville 03-08-2026 - 00:28 26.2°C / 46%
h2-hermonville 03-08-2026 - 00:24 26.6°C / 46.5%
h1-hermonville 03-08-2026 - 00:24 25.5°C / 49%
h3-hermonville 03-08-2026 - 00:20 26.4°C / 46.5%
h4-hermonville 03-08-2026 - 00:18 26.4°C / 45.5%
h2-hermonville 03-08-2026 - 00:14 26.7°C / 46%
h1-hermonville 03-08-2026 - 00:14 25.6°C / 48.5%
h3-hermonville 03-08-2026 - 00:10 26.5°C / 45.5%
h4-hermonville 03-08-2026 - 00:08 26.5°C / 45%
h2-hermonville 03-08-2026 - 00:04 26.9°C / 44.5%
h1-hermonville 03-08-2026 - 00:04 25.9°C / 47.5%
h3-hermonville 03-08-2026 - 00:00 26.6°C / 45%